sensor_id;sensor_type;location;lat;lon;timestamp;pressure;altitude;pressure_sealevel;temperature;humidity
63096;BME280;49184;55.596;37.770;2023-10-13T00:01:47;98223.53;;;10.25;76.54
63096;BME280;49184;55.596;37.770;2023-10-13T00:04:13;98267.19;;;10.46;76.25
63096;BME280;49184;55.596;37.770;2023-10-13T00:06:39;98233.47;;;10.29;76.13
63096;BME280;49184;55.596;37.770;2023-10-13T00:09:05;98256.28;;;10.46;76.32
63096;BME280;49184;55.596;37.770;2023-10-13T00:11:31;98241.22;;;10.27;75.86
63096;BME280;49184;55.596;37.770;2023-10-13T00:13:57;98243.16;;;10.27;75.85
63096;BME280;49184;55.596;37.770;2023-10-13T00:16:30;98275.06;;;10.47;75.93
63096;BME280;49184;55.596;37.770;2023-10-13T00:19:00;98262.75;;;10.41;75.86
63096;BME280;49184;55.596;37.770;2023-10-13T00:21:30;98283.50;;;10.54;75.29
63096;BME280;49184;55.596;37.770;2023-10-13T00:24:00;98254.25;;;10.22;75.51
63096;BME280;49184;55.596;37.770;2023-10-13T00:26:32;98272.41;;;10.39;75.96
63096;BME280;49184;55.596;37.770;2023-10-13T00:29:09;98261.63;;;10.21;75.41
63096;BME280;49184;55.596;37.770;2023-10-13T00:31:41;98253.53;;;10.12;75.46
63096;BME280;49184;55.596;37.770;2023-10-13T00:34:10;98289.59;;;10.39;75.33
63096;BME280;49184;55.596;37.770;2023-10-13T00:36:52;98230.25;;;9.94;75.13
63096;BME280;49184;55.596;37.770;2023-10-13T00:39:36;98263.22;;;10.10;75.14
63096;BME280;49184;55.596;37.770;2023-10-13T00:42:05;98303.69;;;10.29;75.12
63096;BME280;49184;55.596;37.770;2023-10-13T00:44:48;98293.44;;;10.26;74.81
63096;BME280;49184;55.596;37.770;2023-10-13T00:47:18;98283.38;;;10.18;74.41
63096;BME280;49184;55.596;37.770;2023-10-13T00:50:04;98276.84;;;10.10;74.55
63096;BME280;49184;55.596;37.770;2023-10-13T00:52:31;98316.66;;;10.32;74.34
63096;BME280;49184;55.596;37.770;2023-10-13T00:55:01;98266.19;;;9.96;74.26
63096;BME280;49184;55.596;37.770;2023-10-13T00:57:30;98319.78;;;10.22;74.60
63096;BME280;49184;55.596;37.770;2023-10-13T00:59:56;98326.53;;;10.24;74.57
63096;BME280;49184;55.596;37.770;2023-10-13T01:02:23;98331.34;;;10.27;74.29
63096;BME280;49184;55.596;37.770;2023-10-13T01:05:08;98300.53;;;10.18;74.21
63096;BME280;49184;55.596;37.770;2023-10-13T01:07:45;98322.34;;;10.27;74.38
63096;BME280;49184;55.596;37.770;2023-10-13T01:10:16;98259.69;;;9.88;74.35
63096;BME280;49184;55.596;37.770;2023-10-13T01:12:43;98289.44;;;10.02;74.33
63096;BME280;49184;55.596;37.770;2023-10-13T01:15:09;98321.84;;;10.25;74.40
63096;BME280;49184;55.596;37.770;2023-10-13T01:17:37;98290.22;;;10.03;74.84
63096;BME280;49184;55.596;37.770;2023-10-13T01:20:03;98294.63;;;9.95;74.79
63096;BME280;49184;55.596;37.770;2023-10-13T01:22:31;98280.25;;;9.86;74.96
63096;BME280;49184;55.596;37.770;2023-10-13T01:24:58;98304.69;;;10.03;75.04
63096;BME280;49184;55.596;37.770;2023-10-13T01:27:37;98315.88;;;10.10;75.44
63096;BME280;49184;55.596;37.770;2023-10-13T01:30:04;98289.53;;;9.94;75.41
63096;BME280;49184;55.596;37.770;2023-10-13T01:32:50;98293.50;;;9.96;75.25
63096;BME280;49184;55.596;37.770;2023-10-13T01:35:32;98297.63;;;10.02;75.39
63096;BME280;49184;55.596;37.770;2023-10-13T01:38:05;98303.81;;;10.11;75.07
63096;BME280;49184;55.596;37.770;2023-10-13T01:40:32;98285.31;;;9.96;75.12
63096;BME280;49184;55.596;37.770;2023-10-13T01:42:59;98309.53;;;10.19;74.97
63096;BME280;49184;55.596;37.770;2023-10-13T01:45:25;98293.56;;;10.08;75.16
63096;BME280;49184;55.596;37.770;2023-10-13T01:47:55;98296.81;;;10.02;74.95
63096;BME280;49184;55.596;37.770;2023-10-13T01:50:22;98314.69;;;10.20;74.92
63096;BME280;49184;55.596;37.770;2023-10-13T01:52:56;98302.63;;;10.00;74.94
63096;BME280;49184;55.596;37.770;2023-10-13T01:55:39;98319.41;;;10.11;75.23
63096;BME280;49184;55.596;37.770;2023-10-13T01:58:15;98336.41;;;10.17;75.47
63096;BME280;49184;55.596;37.770;2023-10-13T02:00:43;98328.03;;;10.13;75.13
63096;BME280;49184;55.596;37.770;2023-10-13T02:03:11;98348.84;;;10.26;75.28
63096;BME280;49184;55.596;37.770;2023-10-13T02:05:45;98357.34;;;10.25;75.47
63096;BME280;49184;55.596;37.770;2023-10-13T02:08:19;98309.44;;;9.94;75.64
63096;BME280;49184;55.596;37.770;2023-10-13T02:10:55;98297.09;;;9.88;75.51
63096;BME280;49184;55.596;37.770;2023-10-13T02:13:25;98320.38;;;10.06;75.13
63096;BME280;49184;55.596;37.770;2023-10-13T02:15:56;98354.00;;;10.28;75.03
63096;BME280;49184;55.596;37.770;2023-10-13T02:18:24;98324.00;;;9.98;74.91
63096;BME280;49184;55.596;37.770;2023-10-13T02:20:54;98338.53;;;10.11;74.70
63096;BME280;49184;55.596;37.770;2023-10-13T02:23:22;98353.84;;;10.03;75.02
63096;BME280;49184;55.596;37.770;2023-10-13T02:25:55;98319.66;;;9.76;75.60
63096;BME280;49184;55.596;37.770;2023-10-13T02:28:38;98371.59;;;10.09;75.64
63096;BME280;49184;55.596;37.770;2023-10-13T02:31:04;98356.00;;;9.89;75.76
63096;BME280;49184;55.596;37.770;2023-10-13T02:33:38;98371.16;;;10.07;75.61
63096;BME280;49184;55.596;37.770;2023-10-13T02:36:12;98358.81;;;10.01;75.37
63096;BME280;49184;55.596;37.770;2023-10-13T02:38:38;98362.97;;;10.07;74.92
63096;BME280;49184;55.596;37.770;2023-10-13T02:41:13;98326.78;;;9.89;74.81
63096;BME280;49184;55.596;37.770;2023-10-13T02:43:56;98332.53;;;9.97;74.48
63096;BME280;49184;55.596;37.770;2023-10-13T02:46:24;98325.41;;;9.83;74.39
63096;BME280;49184;55.596;37.770;2023-10-13T02:48:54;98362.16;;;10.07;74.23
63096;BME280;49184;55.596;37.770;2023-10-13T02:51:23;98364.06;;;10.06;73.90
63096;BME280;49184;55.596;37.770;2023-10-13T02:53:57;98368.28;;;10.04;74.10
63096;BME280;49184;55.596;37.770;2023-10-13T02:56:29;98388.41;;;10.20;73.65
63096;BME280;49184;55.596;37.770;2023-10-13T02:58:59;98372.78;;;10.00;73.62
63096;BME280;49184;55.596;37.770;2023-10-13T03:01:32;98402.25;;;10.15;73.72
63096;BME280;49184;55.596;37.770;2023-10-13T03:04:01;98372.00;;;9.99;73.98
63096;BME280;49184;55.596;37.770;2023-10-13T03:06:29;98368.72;;;9.85;73.94
63096;BME280;49184;55.596;37.770;2023-10-13T03:09:00;98415.91;;;10.15;73.75
63096;BME280;49184;55.596;37.770;2023-10-13T03:11:48;98388.50;;;10.03;73.57
63096;BME280;49184;55.596;37.770;2023-10-13T03:14:16;98415.78;;;10.11;73.57
63096;BME280;49184;55.596;37.770;2023-10-13T03:16:57;98418.22;;;10.04;73.76
63096;BME280;49184;55.596;37.770;2023-10-13T03:19:30;98405.34;;;9.84;73.75
63096;BME280;49184;55.596;37.770;2023-10-13T03:22:21;98412.28;;;9.81;74.13
63096;BME280;49184;55.596;37.770;2023-10-13T03:25:03;98422.47;;;9.93;73.94
63096;BME280;49184;55.596;37.770;2023-10-13T03:27:51;98360.44;;;9.52;73.75
63096;BME280;49184;55.596;37.770;2023-10-13T03:30:20;98384.50;;;9.79;73.65
63096;BME280;49184;55.596;37.770;2023-10-13T03:32:59;98395.66;;;9.95;73.44
63096;BME280;49184;55.596;37.770;2023-10-13T03:35:26;98431.97;;;10.17;73.11
63096;BME280;49184;55.596;37.770;2023-10-13T03:38:20;98435.94;;;10.19;72.44
63096;BME280;49184;55.596;37.770;2023-10-13T03:40:55;98407.63;;;10.03;72.76
63096;BME280;49184;55.596;37.770;2023-10-13T03:43:22;98421.94;;;10.00;72.67
63096;BME280;49184;55.596;37.770;2023-10-13T03:45:55;98413.75;;;10.00;72.64
63096;BME280;49184;55.596;37.770;2023-10-13T03:48:33;98435.75;;;10.03;72.54
63096;BME280;49184;55.596;37.770;2023-10-13T03:51:06;98400.59;;;9.72;72.99
63096;BME280;49184;55.596;37.770;2023-10-13T03:53:42;98437.31;;;9.83;73.02
63096;BME280;49184;55.596;37.770;2023-10-13T03:56:26;98421.78;;;9.75;72.96
63096;BME280;49184;55.596;37.770;2023-10-13T03:58:57;98421.16;;;9.70;72.91
63096;BME280;49184;55.596;37.770;2023-10-13T04:01:30;98447.25;;;9.88;72.69
63096;BME280;49184;55.596;37.770;2023-10-13T04:04:13;98443.59;;;9.75;72.52
63096;BME280;49184;55.596;37.770;2023-10-13T04:07:07;98425.00;;;9.69;72.36
63096;BME280;49184;55.596;37.770;2023-10-13T04:09:41;98437.22;;;9.71;72.18
63096;BME280;49184;55.596;37.770;2023-10-13T04:12:14;98428.09;;;9.67;71.97
63096;BME280;49184;55.596;37.770;2023-10-13T04:15:11;98440.56;;;9.77;71.78
63096;BME280;49184;55.596;37.770;2023-10-13T04:18:00;98433.41;;;9.63;71.56
63096;BME280;49184;55.596;37.770;2023-10-13T04:20:40;98443.34;;;9.59;71.23
63096;BME280;49184;55.596;37.770;2023-10-13T04:23:15;98497.44;;;9.96;71.25
63096;BME280;49184;55.596;37.770;2023-10-13T04:25:47;98496.94;;;10.02;71.37
63096;BME280;49184;55.596;37.770;2023-10-13T04:28:14;98496.34;;;9.97;71.59
63096;BME280;49184;55.596;37.770;2023-10-13T04:31:29;98502.91;;;9.96;71.83
63096;BME280;49184;55.596;37.770;2023-10-13T04:34:14;98505.50;;;9.92;71.68
63096;BME280;49184;55.596;37.770;2023-10-13T04:36:45;98474.78;;;9.65;71.64
63096;BME280;49184;55.596;37.770;2023-10-13T04:39:12;98486.13;;;9.76;71.79
63096;BME280;49184;55.596;37.770;2023-10-13T04:41:55;98451.41;;;9.56;71.70
63096;BME280;49184;55.596;37.770;2023-10-13T04:44:22;98524.44;;;9.97;71.37
63096;BME280;49184;55.596;37.770;2023-10-13T04:46:58;98522.50;;;9.98;71.18
63096;BME280;49184;55.596;37.770;2023-10-13T04:49:26;98529.56;;;9.99;71.28
63096;BME280;49184;55.596;37.770;2023-10-13T04:51:55;98537.06;;;10.10;71.11
63096;BME280;49184;55.596;37.770;2023-10-13T04:54:28;98560.84;;;10.10;70.91
63096;BME280;49184;55.596;37.770;2023-10-13T04:57:01;98499.97;;;9.71;70.72
63096;BME280;49184;55.596;37.770;2023-10-13T04:59:49;98514.63;;;9.96;70.68
63096;BME280;49184;55.596;37.770;2023-10-13T05:02:36;98546.19;;;10.15;70.42
63096;BME280;49184;55.596;37.770;2023-10-13T05:05:02;98581.03;;;10.18;69.99
63096;BME280;49184;55.596;37.770;2023-10-13T05:07:34;98515.13;;;9.89;70.00
63096;BME280;49184;55.596;37.770;2023-10-13T05:10:19;98563.66;;;10.22;69.73
63096;BME280;49184;55.596;37.770;2023-10-13T05:13:04;98552.78;;;10.14;69.69
63096;BME280;49184;55.596;37.770;2023-10-13T05:15:50;98561.81;;;10.05;70.09
63096;BME280;49184;55.596;37.770;2023-10-13T05:18:36;98586.00;;;10.24;69.97
63096;BME280;49184;55.596;37.770;2023-10-13T05:21:21;98601.91;;;10.22;69.76
63096;BME280;49184;55.596;37.770;2023-10-13T05:24:06;98573.16;;;10.16;69.51
63096;BME280;49184;55.596;37.770;2023-10-13T05:26:52;98549.44;;;10.08;69.16
63096;BME280;49184;55.596;37.770;2023-10-13T05:29:41;98603.31;;;10.37;68.86
63096;BME280;49184;55.596;37.770;2023-10-13T05:32:26;98613.59;;;10.40;68.92
63096;BME280;49184;55.596;37.770;2023-10-13T05:35:12;98584.84;;;10.25;68.59
63096;BME280;49184;55.596;37.770;2023-10-13T05:38:00;98606.00;;;10.46;68.71
63096;BME280;49184;55.596;37.770;2023-10-13T05:41:02;98593.22;;;10.29;68.35
63096;BME280;49184;55.596;37.770;2023-10-13T05:43:47;98623.53;;;10.45;68.38
63096;BME280;49184;55.596;37.770;2023-10-13T05:46:33;98618.28;;;10.31;68.43
63096;BME280;49184;55.596;37.770;2023-10-13T05:49:07;98619.34;;;10.47;67.99
63096;BME280;49184;55.596;37.770;2023-10-13T05:51:42;98655.47;;;10.82;67.35
63096;BME280;49184;55.596;37.770;2023-10-13T05:54:32;98610.72;;;10.66;66.95
63096;BME280;49184;55.596;37.770;2023-10-13T05:57:16;98638.84;;;10.96;66.63
63096;BME280;49184;55.596;37.770;2023-10-13T06:00:01;98647.84;;;10.97;65.92
63096;BME280;49184;55.596;37.770;2023-10-13T06:02:45;98661.00;;;11.03;65.38
63096;BME280;49184;55.596;37.770;2023-10-13T06:05:30;98663.88;;;11.07;65.68
63096;BME280;49184;55.596;37.770;2023-10-13T06:08:14;98668.00;;;11.13;65.77
63096;BME280;49184;55.596;37.770;2023-10-13T06:11:03;98656.28;;;11.13;65.33
63096;BME280;49184;55.596;37.770;2023-10-13T06:13:48;98661.78;;;11.25;64.87
63096;BME280;49184;55.596;37.770;2023-10-13T06:16:32;98674.00;;;11.27;63.93
63096;BME280;49184;55.596;37.770;2023-10-13T06:19:17;98676.47;;;11.20;64.09
63096;BME280;49184;55.596;37.770;2023-10-13T06:22:02;98687.16;;;11.13;64.44
63096;BME280;49184;55.596;37.770;2023-10-13T06:24:46;98673.25;;;11.18;63.91
63096;BME280;49184;55.596;37.770;2023-10-13T06:27:31;98651.16;;;11.02;63.09
63096;BME280;49184;55.596;37.770;2023-10-13T06:30:16;98670.41;;;11.15;62.96
63096;BME280;49184;55.596;37.770;2023-10-13T06:32:43;98680.63;;;11.26;63.34
63096;BME280;49184;55.596;37.770;2023-10-13T06:35:12;98689.78;;;11.31;62.53
63096;BME280;49184;55.596;37.770;2023-10-13T06:37:51;98649.97;;;11.12;62.28
63096;BME280;49184;55.596;37.770;2023-10-13T06:40:17;98696.25;;;11.47;61.61
63096;BME280;49184;55.596;37.770;2023-10-13T06:42:59;98701.78;;;11.38;61.82
63096;BME280;49184;55.596;37.770;2023-10-13T06:45:41;98703.72;;;11.38;61.56
63096;BME280;49184;55.596;37.770;2023-10-13T06:48:08;98705.59;;;11.46;61.70
63096;BME280;49184;55.596;37.770;2023-10-13T06:50:39;98722.16;;;11.49;60.87
63096;BME280;49184;55.596;37.770;2023-10-13T06:53:07;98710.47;;;11.40;59.97
63096;BME280;49184;55.596;37.770;2023-10-13T06:55:38;98724.22;;;11.52;59.57
63096;BME280;49184;55.596;37.770;2023-10-13T06:58:06;98762.19;;;11.54;59.01
63096;BME280;49184;55.596;37.770;2023-10-13T07:00:40;98734.47;;;11.35;57.58
63096;BME280;49184;55.596;37.770;2023-10-13T07:03:08;98690.03;;;11.17;58.13
63096;BME280;49184;55.596;37.770;2023-10-13T07:05:44;98691.44;;;11.23;58.14
63096;BME280;49184;55.596;37.770;2023-10-13T07:08:15;98692.63;;;11.13;58.80
63096;BME280;49184;55.596;37.770;2023-10-13T07:10:54;98717.25;;;11.34;58.78
63096;BME280;49184;55.596;37.770;2023-10-13T07:13:44;98725.22;;;11.48;57.88
63096;BME280;49184;55.596;37.770;2023-10-13T07:16:20;98758.94;;;11.61;58.07
63096;BME280;49184;55.596;37.770;2023-10-13T07:19:02;98771.03;;;11.60;58.65
63096;BME280;49184;55.596;37.770;2023-10-13T07:21:33;98757.38;;;11.51;58.16
63096;BME280;49184;55.596;37.770;2023-10-13T07:23:59;98769.78;;;11.48;57.71
63096;BME280;49184;55.596;37.770;2023-10-13T07:26:44;98775.09;;;11.53;58.04
63096;BME280;49184;55.596;37.770;2023-10-13T07:29:29;98784.63;;;11.68;57.65
63096;BME280;49184;55.596;37.770;2023-10-13T07:31:55;98762.47;;;11.61;58.30
63096;BME280;49184;55.596;37.770;2023-10-13T07:34:21;98761.41;;;11.74;57.49
63096;BME280;49184;55.596;37.770;2023-10-13T07:36:57;98771.06;;;11.72;57.06
63096;BME280;49184;55.596;37.770;2023-10-13T07:39:30;98769.69;;;11.66;56.62
63096;BME280;49184;55.596;37.770;2023-10-13T07:42:00;98791.06;;;11.72;56.44
63096;BME280;49184;55.596;37.770;2023-10-13T07:44:30;98785.50;;;11.60;56.46
63096;BME280;49184;55.596;37.770;2023-10-13T07:47:02;98761.97;;;11.38;55.57
63096;BME280;49184;55.596;37.770;2023-10-13T07:49:31;98822.44;;;11.75;55.57
63096;BME280;49184;55.596;37.770;2023-10-13T07:52:05;98804.16;;;11.67;56.22
63096;BME280;49184;55.596;37.770;2023-10-13T07:55:01;98801.88;;;11.69;55.90
63096;BME280;49184;55.596;37.770;2023-10-13T07:57:46;98789.31;;;11.68;55.48
63096;BME280;49184;55.596;37.770;2023-10-13T08:00:24;98798.00;;;11.70;54.98
63096;BME280;49184;55.596;37.770;2023-10-13T08:03:13;98811.47;;;11.75;54.94
63096;BME280;49184;55.596;37.770;2023-10-13T08:05:43;98837.88;;;11.80;53.87
63096;BME280;49184;55.596;37.770;2023-10-13T08:08:30;98827.72;;;11.89;53.54
63096;BME280;49184;55.596;37.770;2023-10-13T08:11:09;98814.63;;;11.65;53.31
63096;BME280;49184;55.596;37.770;2023-10-13T08:13:56;98829.72;;;11.71;52.71
63096;BME280;49184;55.596;37.770;2023-10-13T08:16:28;98834.66;;;11.57;53.03
63096;BME280;49184;55.596;37.770;2023-10-13T08:19:17;98814.56;;;11.52;53.17
63096;BME280;49184;55.596;37.770;2023-10-13T08:21:46;98839.25;;;11.65;53.21
63096;BME280;49184;55.596;37.770;2023-10-13T08:24:25;98839.91;;;11.62;52.91
63096;BME280;49184;55.596;37.770;2023-10-13T08:27:06;98855.50;;;11.70;53.43
63096;BME280;49184;55.596;37.770;2023-10-13T08:29:52;98863.34;;;11.80;52.30
63096;BME280;49184;55.596;37.770;2023-10-13T08:32:24;98895.72;;;11.78;52.41
63096;BME280;49184;55.596;37.770;2023-10-13T08:34:50;98880.91;;;11.79;52.66
63096;BME280;49184;55.596;37.770;2023-10-13T08:37:22;98888.47;;;11.82;52.86
63096;BME280;49184;55.596;37.770;2023-10-13T08:39:56;98872.22;;;11.77;52.14
63096;BME280;49184;55.596;37.770;2023-10-13T08:42:59;98863.25;;;11.97;51.65
63096;BME280;49184;55.596;37.770;2023-10-13T08:45:40;98912.72;;;12.22;50.41
63096;BME280;49184;55.596;37.770;2023-10-13T08:51:22;98921.06;;;12.26;49.44
63096;BME280;49184;55.596;37.770;2023-10-13T08:54:17;98886.16;;;12.14;48.78
63096;BME280;49184;55.596;37.770;2023-10-13T08:57:03;98858.81;;;11.84;48.07
63096;BME280;49184;55.596;37.770;2023-10-13T08:59:48;98871.38;;;11.85;48.39
63096;BME280;49184;55.596;37.770;2023-10-13T09:02:25;98914.38;;;12.14;48.59
63096;BME280;49184;55.596;37.770;2023-10-13T09:05:13;98922.66;;;12.06;48.03
63096;BME280;49184;55.596;37.770;2023-10-13T09:08:08;98932.09;;;12.17;48.03
63096;BME280;49184;55.596;37.770;2023-10-13T09:10:35;98927.22;;;12.22;47.55
63096;BME280;49184;55.596;37.770;2023-10-13T09:13:11;98918.19;;;12.22;47.80
63096;BME280;49184;55.596;37.770;2023-10-13T09:15:46;98897.88;;;12.02;47.24
63096;BME280;49184;55.596;37.770;2023-10-13T09:18:27;98915.59;;;12.26;47.69
63096;BME280;49184;55.596;37.770;2023-10-13T09:21:15;98907.25;;;12.22;47.32
63096;BME280;49184;55.596;37.770;2023-10-13T09:24:02;98925.94;;;12.41;46.96
63096;BME280;49184;55.596;37.770;2023-10-13T09:26:48;98949.66;;;12.79;46.96
63096;BME280;49184;55.596;37.770;2023-10-13T09:29:22;98947.84;;;12.83;46.08
63096;BME280;49184;55.596;37.770;2023-10-13T09:32:01;98906.22;;;12.68;46.66
63096;BME280;49184;55.596;37.770;2023-10-13T09:34:29;98955.47;;;13.10;46.17
63096;BME280;49184;55.596;37.770;2023-10-13T09:37:00;98954.69;;;13.10;45.00
63096;BME280;49184;55.596;37.770;2023-10-13T09:39:29;98947.94;;;13.07;45.83
63096;BME280;49184;55.596;37.770;2023-10-13T09:42:05;98940.00;;;13.27;46.47
63096;BME280;49184;55.596;37.770;2023-10-13T09:44:40;98966.22;;;13.36;45.80
63096;BME280;49184;55.596;37.770;2023-10-13T09:47:13;98978.00;;;13.37;44.97
63096;BME280;49184;55.596;37.770;2023-10-13T09:49:45;98954.09;;;13.25;45.03
63096;BME280;49184;55.596;37.770;2023-10-13T09:52:16;98973.16;;;13.01;45.34
63096;BME280;49184;55.596;37.770;2023-10-13T09:55:00;98940.50;;;12.75;46.14
63096;BME280;49184;55.596;37.770;2023-10-13T09:57:34;98991.16;;;13.10;45.13
63096;BME280;49184;55.596;37.770;2023-10-13T10:00:33;98993.34;;;13.05;45.07
63096;BME280;49184;55.596;37.770;2023-10-13T10:03:11;99001.09;;;13.03;45.70
63096;BME280;49184;55.596;37.770;2023-10-13T10:06:06;98988.97;;;13.04;46.04
63096;BME280;49184;55.596;37.770;2023-10-13T10:08:38;99033.13;;;13.11;45.75
63096;BME280;49184;55.596;37.770;2023-10-13T10:14:56;99002.13;;;13.10;44.98
63096;BME280;49184;55.596;37.770;2023-10-13T10:17:47;99012.34;;;12.89;45.57
63096;BME280;49184;55.596;37.770;2023-10-13T10:20:29;99020.91;;;13.08;46.09
63096;BME280;49184;55.596;37.770;2023-10-13T10:23:28;99016.25;;;13.42;45.75
63096;BME280;49184;55.596;37.770;2023-10-13T10:26:16;98973.16;;;13.22;46.32
63096;BME280;49184;55.596;37.770;2023-10-13T10:28:48;99018.38;;;13.36;45.36
63096;BME280;49184;55.596;37.770;2023-10-13T10:31:15;99023.19;;;13.39;45.21
63096;BME280;49184;55.596;37.770;2023-10-13T10:33:44;99022.16;;;13.44;45.17
63096;BME280;49184;55.596;37.770;2023-10-13T10:36:12;98990.03;;;13.11;44.78
63096;BME280;49184;55.596;37.770;2023-10-13T10:38:54;99031.19;;;13.32;44.47
63096;BME280;49184;55.596;37.770;2023-10-13T10:41:26;99007.19;;;13.21;44.46
63096;BME280;49184;55.596;37.770;2023-10-13T10:44:23;99032.13;;;13.36;44.45
63096;BME280;49184;55.596;37.770;2023-10-13T10:47:15;99053.53;;;13.43;44.46
63096;BME280;49184;55.596;37.770;2023-10-13T10:49:46;99005.09;;;13.05;45.44
63096;BME280;49184;55.596;37.770;2023-10-13T10:52:17;99038.16;;;13.09;45.27
63096;BME280;49184;55.596;37.770;2023-10-13T10:54:59;99030.16;;;12.83;45.11
63096;BME280;49184;55.596;37.770;2023-10-13T10:57:29;99014.09;;;12.52;46.12
63096;BME280;49184;55.596;37.770;2023-10-13T10:59:55;99074.97;;;12.87;46.10
63096;BME280;49184;55.596;37.770;2023-10-13T11:02:58;99081.91;;;12.84;46.16
63096;BME280;49184;55.596;37.770;2023-10-13T11:05:27;99083.41;;;12.82;46.35
63096;BME280;49184;55.596;37.770;2023-10-13T11:07:58;99071.47;;;12.78;45.61
63096;BME280;49184;55.596;37.770;2023-10-13T11:10:25;99063.25;;;12.78;45.61
63096;BME280;49184;55.596;37.770;2023-10-13T11:12:57;99091.16;;;13.01;44.54
63096;BME280;49184;55.596;37.770;2023-10-13T11:15:44;99107.91;;;13.08;43.13
63096;BME280;49184;55.596;37.770;2023-10-13T11:18:13;99069.34;;;12.83;43.56
63096;BME280;49184;55.596;37.770;2023-10-13T11:20:49;99073.81;;;12.88;43.17
63096;BME280;49184;55.596;37.770;2023-10-13T11:23:23;99076.78;;;12.83;43.73
63096;BME280;49184;55.596;37.770;2023-10-13T11:26:04;99095.00;;;13.08;44.17
63096;BME280;49184;55.596;37.770;2023-10-13T11:28:31;99081.94;;;13.05;44.32
63096;BME280;49184;55.596;37.770;2023-10-13T11:31:05;99113.19;;;13.34;44.59
63096;BME280;49184;55.596;37.770;2023-10-13T11:33:43;99116.28;;;13.32;44.46
63096;BME280;49184;55.596;37.770;2023-10-13T11:36:12;99091.97;;;13.22;44.12
63096;BME280;49184;55.596;37.770;2023-10-13T11:38:46;99120.47;;;13.51;44.40
63096;BME280;49184;55.596;37.770;2023-10-13T11:41:46;99071.16;;;13.42;44.53
63096;BME280;49184;55.596;37.770;2023-10-13T11:44:48;99097.41;;;13.64;44.47
63096;BME280;49184;55.596;37.770;2023-10-13T11:47:29;99117.72;;;13.72;43.30
63096;BME280;49184;55.596;37.770;2023-10-13T11:50:16;99118.84;;;13.71;43.39
63096;BME280;49184;55.596;37.770;2023-10-13T11:52:59;99097.63;;;13.59;43.40
63096;BME280;49184;55.596;37.770;2023-10-13T11:55:26;99117.59;;;13.68;42.29
63096;BME280;49184;55.596;37.770;2023-10-13T11:57:53;99121.03;;;13.77;42.00
63096;BME280;49184;55.596;37.770;2023-10-13T12:00:36;99128.56;;;13.68;41.85
63096;BME280;49184;55.596;37.770;2023-10-13T12:03:26;99143.00;;;13.77;42.63
63096;BME280;49184;55.596;37.770;2023-10-13T12:06:13;99133.22;;;13.89;42.48
63096;BME280;49184;55.596;37.770;2023-10-13T12:08:59;99107.03;;;13.70;42.88
63096;BME280;49184;55.596;37.770;2023-10-13T12:12:00;99137.22;;;13.91;42.34
63096;BME280;49184;55.596;37.770;2023-10-13T12:14:48;99125.59;;;13.61;42.72
63096;BME280;49184;55.596;37.770;2023-10-13T12:17:30;99123.22;;;13.72;42.86
63096;BME280;49184;55.596;37.770;2023-10-13T12:20:10;99137.78;;;13.84;43.22
63096;BME280;49184;55.596;37.770;2023-10-13T12:22:45;99113.50;;;13.74;42.08
63096;BME280;49184;55.596;37.770;2023-10-13T12:25:23;99107.72;;;13.67;42.69
63096;BME280;49184;55.596;37.770;2023-10-13T12:28:13;99143.78;;;13.99;43.15
63096;BME280;49184;55.596;37.770;2023-10-13T12:30:45;99126.69;;;13.93;43.35
63096;BME280;49184;55.596;37.770;2023-10-13T12:33:59;99105.50;;;13.94;43.31
63096;BME280;49184;55.596;37.770;2023-10-13T12:36:41;99136.56;;;14.06;42.26
63096;BME280;49184;55.596;37.770;2023-10-13T12:39:07;99114.09;;;13.92;42.50
63096;BME280;49184;55.596;37.770;2023-10-13T12:41:33;99124.88;;;13.97;42.30
63096;BME280;49184;55.596;37.770;2023-10-13T12:44:20;99125.56;;;13.94;41.88
63096;BME280;49184;55.596;37.770;2023-10-13T12:47:25;99145.84;;;14.02;41.99
63096;BME280;49184;55.596;37.770;2023-10-13T12:50:11;99139.00;;;14.08;42.57
63096;BME280;49184;55.596;37.770;2023-10-13T12:52:51;99126.25;;;13.91;42.10
63096;BME280;49184;55.596;37.770;2023-10-13T12:55:17;99138.28;;;13.99;41.85
63096;BME280;49184;55.596;37.770;2023-10-13T12:57:46;99095.38;;;13.61;41.93
63096;BME280;49184;55.596;37.770;2023-10-13T13:00:14;99117.03;;;13.75;42.13
63096;BME280;49184;55.596;37.770;2023-10-13T13:02:47;99105.03;;;13.79;42.29
63096;BME280;49184;55.596;37.770;2023-10-13T13:05:16;99166.81;;;14.06;42.48
63096;BME280;49184;55.596;37.770;2023-10-13T13:07:46;99156.34;;;13.88;42.13
63096;BME280;49184;55.596;37.770;2023-10-13T13:10:19;99174.75;;;13.87;42.01
63096;BME280;49184;55.596;37.770;2023-10-13T13:12:54;99176.16;;;13.93;43.21
63096;BME280;49184;55.596;37.770;2023-10-13T13:15:20;99172.41;;;13.98;42.68
63096;BME280;49184;55.596;37.770;2023-10-13T13:17:49;99183.16;;;14.03;42.23
63096;BME280;49184;55.596;37.770;2023-10-13T13:20:16;99183.84;;;14.00;42.40
63096;BME280;49184;55.596;37.770;2023-10-13T13:22:57;99175.31;;;13.80;43.00
63096;BME280;49184;55.596;37.770;2023-10-13T13:25:28;99181.75;;;13.84;42.53
63096;BME280;49184;55.596;37.770;2023-10-13T13:27:57;99180.69;;;13.56;42.25
63096;BME280;49184;55.596;37.770;2023-10-13T13:30:26;99179.00;;;13.63;41.87
63096;BME280;49184;55.596;37.770;2023-10-13T13:32:59;99177.22;;;13.68;42.58
63096;BME280;49184;55.596;37.770;2023-10-13T13:35:31;99200.50;;;13.82;41.82
63096;BME280;49184;55.596;37.770;2023-10-13T13:38:04;99166.59;;;13.45;41.98
63096;BME280;49184;55.596;37.770;2023-10-13T13:40:49;99205.22;;;13.61;42.50
63096;BME280;49184;55.596;37.770;2023-10-13T13:43:36;99179.69;;;13.39;42.74
63096;BME280;49184;55.596;37.770;2023-10-13T13:46:18;99191.44;;;13.49;42.89
63096;BME280;49184;55.596;37.770;2023-10-13T13:48:45;99208.16;;;13.56;43.54
63096;BME280;49184;55.596;37.770;2023-10-13T13:51:14;99206.44;;;13.51;43.39